createdAt,value
2018-03-03T00:00:26.906Z,-5.74
2018-03-03T00:01:07.527Z,-5.72
2018-03-03T00:01:48.019Z,-5.72
2018-03-03T00:02:28.579Z,-5.79
2018-03-03T00:03:09.128Z,-5.76
2018-03-03T00:03:49.748Z,-5.75
2018-03-03T00:04:30.300Z,-5.85
2018-03-03T00:05:10.839Z,-5.82
2018-03-03T00:05:51.442Z,-5.89
2018-03-03T00:06:31.938Z,-5.93
2018-03-03T00:07:12.511Z,-5.86
2018-03-03T00:07:53.081Z,-5.93
2018-03-03T00:08:33.636Z,-5.9
2018-03-03T00:09:14.191Z,-5.9
2018-03-03T00:09:54.742Z,-5.85
2018-03-03T00:10:35.294Z,-5.95
2018-03-03T00:11:15.850Z,-5.92
2018-03-03T00:11:56.382Z,-5.86
2018-03-03T00:12:36.939Z,-5.89
2018-03-03T00:13:17.489Z,-5.97
2018-03-03T00:13:58.039Z,-5.93
2018-03-03T00:14:38.598Z,-5.95
2018-03-03T00:15:19.172Z,-5.93
2018-03-03T00:15:59.711Z,-5.97
2018-03-03T00:16:40.262Z,-5.92
2018-03-03T00:17:20.831Z,-5.97
2018-03-03T00:18:01.352Z,-5.99
2018-03-03T00:18:41.927Z,-5.96
2018-03-03T00:19:22.505Z,-5.93
2018-03-03T00:20:03.053Z,-5.93
2018-03-03T00:20:43.618Z,-5.97
2018-03-03T00:21:24.179Z,-6.05
2018-03-03T00:22:04.731Z,-6.03
2018-03-03T00:22:45.276Z,-6.02
2018-03-03T00:23:25.853Z,-6
2018-03-03T00:24:06.392Z,-6.05
2018-03-03T00:24:46.995Z,-6.08
2018-03-03T00:25:27.532Z,-6.08
2018-03-03T00:26:08.079Z,-6.02
2018-03-03T00:26:48.696Z,-6.05
2018-03-03T00:27:29.177Z,-6.05
2018-03-03T00:28:09.729Z,-6
2018-03-03T00:28:50.275Z,-6.05
2018-03-03T00:29:30.815Z,-5.99
2018-03-03T00:30:11.375Z,-6.05
2018-03-03T00:30:51.922Z,-6.13
2018-03-03T00:31:32.467Z,-6.05
2018-03-03T00:32:13.009Z,-6.15
2018-03-03T00:32:53.562Z,-6.1
2018-03-03T00:33:34.113Z,-6.07
2018-03-03T00:34:14.767Z,-6.03
2018-03-03T00:34:55.282Z,-6.05
2018-03-03T00:35:35.842Z,-6.07
2018-03-03T00:36:16.420Z,-6.13
2018-03-03T00:36:56.967Z,-6.07
2018-03-03T00:37:37.519Z,-6.15
2018-03-03T00:38:18.085Z,-6.1
2018-03-03T00:38:58.641Z,-6.21
2018-03-03T00:39:39.192Z,-6.08
2018-03-03T00:40:19.743Z,-6.1
2018-03-03T00:41:00.304Z,-6.13
2018-03-03T00:41:40.861Z,-6.18
2018-03-03T00:42:21.407Z,-6.15
2018-03-03T00:43:01.957Z,-6.14
2018-03-03T00:43:42.521Z,-6.18
2018-03-03T00:44:23.056Z,-6.13
2018-03-03T00:45:03.621Z,-6.15
2018-03-03T00:45:44.189Z,-6.14
2018-03-03T00:46:24.752Z,-6.17
2018-03-03T00:47:05.285Z,-6.23
2018-03-03T00:47:45.864Z,-6.28
2018-03-03T00:48:26.400Z,-6.21
2018-03-03T00:49:06.933Z,-6.26
2018-03-03T00:49:47.473Z,-6.35
2018-03-03T00:50:28.015Z,-6.28
2018-03-03T00:51:08.571Z,-6.28
2018-03-03T00:51:49.112Z,-6.34
2018-03-03T00:52:29.682Z,-6.23
2018-03-03T00:53:10.254Z,-6.23
2018-03-03T00:53:50.796Z,-6.24
2018-03-03T00:54:31.352Z,-6.24
2018-03-03T00:55:11.952Z,-6.29
2018-03-03T00:55:52.487Z,-6.31
2018-03-03T00:56:33.095Z,-6.32
2018-03-03T00:57:13.594Z,-6.28
2018-03-03T00:57:54.152Z,-6.28
2018-03-03T00:58:34.700Z,-6.31
2018-03-03T00:59:15.260Z,-6.29
2018-03-03T00:59:55.855Z,-6.28
2018-03-03T01:00:36.392Z,-6.35
2018-03-03T01:01:16.932Z,-6.31
2018-03-03T01:01:57.483Z,-6.39
2018-03-03T01:02:38.034Z,-6.41
2018-03-03T01:03:18.572Z,-6.26
2018-03-03T01:03:59.130Z,-6.42
2018-03-03T01:04:39.674Z,-6.35
2018-03-03T01:05:20.223Z,-6.41
2018-03-03T01:06:00.764Z,-6.39
2018-03-03T01:06:41.312Z,-6.42
2018-03-03T01:07:21.869Z,-6.38
2018-03-03T01:08:02.430Z,-6.36
2018-03-03T01:08:42.979Z,-6.42
2018-03-03T01:09:23.533Z,-6.36
2018-03-03T01:10:04.078Z,-6.39
2018-03-03T01:10:44.636Z,-6.39
2018-03-03T01:11:25.182Z,-6.34
2018-03-03T01:12:05.765Z,-6.41
2018-03-03T01:12:46.316Z,-6.38
2018-03-03T01:13:26.863Z,-6.41
2018-03-03T01:14:07.430Z,-6.41
2018-03-03T01:14:47.985Z,-6.38
2018-03-03T01:15:28.526Z,-6.42
2018-03-03T01:16:09.077Z,-6.41
2018-03-03T01:16:49.636Z,-6.47
2018-03-03T01:17:30.198Z,-6.35
2018-03-03T01:18:10.748Z,-6.41
2018-03-03T01:18:51.306Z,-6.41
2018-03-03T01:19:31.847Z,-6.38
2018-03-03T01:20:12.405Z,-6.41
2018-03-03T01:20:52.945Z,-6.44
2018-03-03T01:21:33.494Z,-6.38
2018-03-03T01:22:14.024Z,-6.41
2018-03-03T01:22:54.606Z,-6.41
2018-03-03T01:23:35.182Z,-6.44
2018-03-03T01:24:15.746Z,-6.5
2018-03-03T01:24:56.297Z,-6.41
2018-03-03T01:25:36.854Z,-6.47
2018-03-03T01:26:17.392Z,-6.47
2018-03-03T01:26:57.943Z,-6.41
2018-03-03T01:27:38.505Z,-6.41
2018-03-03T01:28:19.049Z,-6.44
2018-03-03T01:28:59.591Z,-6.47
2018-03-03T01:29:40.140Z,-6.5
2018-03-03T01:30:20.690Z,-6.56
2018-03-03T01:31:01.248Z,-6.44
2018-03-03T01:31:41.790Z,-6.53
2018-03-03T01:32:22.352Z,-6.42
2018-03-03T01:33:02.899Z,-6.56
2018-03-03T01:33:43.456Z,-6.46
2018-03-03T01:34:23.999Z,-6.5
2018-03-03T01:35:04.547Z,-6.47
2018-03-03T01:35:45.099Z,-6.49
2018-03-03T01:36:25.653Z,-6.46
2018-03-03T01:37:06.203Z,-6.52
2018-03-03T01:37:46.751Z,-6.47
2018-03-03T01:38:27.295Z,-6.47
2018-03-03T01:39:07.844Z,-6.41
2018-03-03T01:39:48.421Z,-6.41
2018-03-03T01:40:28.956Z,-6.42
2018-03-03T01:41:09.505Z,-6.42
2018-03-03T01:41:50.054Z,-6.56
2018-03-03T01:42:30.606Z,-6.5
2018-03-03T01:43:11.148Z,-6.47
2018-03-03T01:43:51.698Z,-6.47
2018-03-03T01:44:32.288Z,-6.5
2018-03-03T01:45:12.864Z,-6.52
2018-03-03T01:45:53.426Z,-6.47
2018-03-03T01:46:34.012Z,-6.47
2018-03-03T01:47:14.571Z,-6.53
2018-03-03T01:47:55.128Z,-6.52
2018-03-03T01:48:35.731Z,-6.5
2018-03-03T01:49:16.299Z,-6.6
2018-03-03T01:49:56.856Z,-6.58
2018-03-03T01:50:37.400Z,-6.52
2018-03-03T01:51:17.954Z,-6.65
2018-03-03T01:51:58.504Z,-6.56
2018-03-03T01:52:39.059Z,-6.66
2018-03-03T01:53:19.610Z,-6.56
2018-03-03T01:54:00.167Z,-6.54
2018-03-03T01:54:40.709Z,-6.54
2018-03-03T01:55:21.268Z,-6.68
2018-03-03T01:56:01.821Z,-6.6
2018-03-03T01:56:42.373Z,-6.56
2018-03-03T01:57:22.968Z,-6.63
2018-03-03T01:58:03.511Z,-6.65
2018-03-03T01:58:44.052Z,-6.65
2018-03-03T01:59:24.642Z,-6.66
2018-03-03T02:00:05.202Z,-6.61
2018-03-03T02:00:45.772Z,-6.56
2018-03-03T02:01:26.386Z,-6.58
2018-03-03T02:02:06.925Z,-6.6
2018-03-03T02:02:47.485Z,-6.65
2018-03-03T02:03:28.053Z,-6.58
2018-03-03T02:04:08.618Z,-6.61
2018-03-03T02:04:49.168Z,-6.56
2018-03-03T02:05:29.753Z,-6.65
2018-03-03T02:06:10.302Z,-6.61
2018-03-03T02:06:50.850Z,-6.69
2018-03-03T02:07:31.399Z,-6.6
2018-03-03T02:08:11.945Z,-6.66
2018-03-03T02:08:52.508Z,-6.68
2018-03-03T02:09:33.061Z,-6.75
2018-03-03T02:10:13.603Z,-6.66
2018-03-03T02:10:54.164Z,-6.68
2018-03-03T02:11:34.716Z,-6.66
2018-03-03T02:12:15.268Z,-6.65
2018-03-03T02:12:55.821Z,-6.72
2018-03-03T02:13:36.364Z,-6.68
2018-03-03T02:14:16.924Z,-6.66
2018-03-03T02:14:57.470Z,-6.65
2018-03-03T02:15:38.039Z,-6.61
2018-03-03T02:16:18.582Z,-6.63
2018-03-03T02:16:59.137Z,-6.61
2018-03-03T02:17:39.690Z,-6.61
2018-03-03T02:18:20.237Z,-6.61
2018-03-03T02:19:00.792Z,-6.63
2018-03-03T02:19:41.362Z,-6.56
2018-03-03T02:20:21.915Z,-6.61
2018-03-03T02:21:02.481Z,-6.65
2018-03-03T02:21:43.031Z,-6.66
2018-03-03T02:22:23.582Z,-6.65
2018-03-03T02:23:04.156Z,-6.66
2018-03-03T02:23:44.695Z,-6.68
2018-03-03T02:24:25.262Z,-6.56
2018-03-03T02:25:05.805Z,-6.66
2018-03-03T02:25:46.360Z,-6.6
2018-03-03T02:26:26.911Z,-6.63
2018-03-03T02:27:07.503Z,-6.6
2018-03-03T02:27:48.075Z,-6.6
2018-03-03T02:28:28.664Z,-6.58
2018-03-03T02:29:09.213Z,-6.63
2018-03-03T02:29:49.761Z,-6.61
2018-03-03T02:30:30.309Z,-6.6
2018-03-03T02:31:10.873Z,-6.54
2018-03-03T02:31:51.415Z,-6.58
2018-03-03T02:32:31.964Z,-6.71
2018-03-03T02:33:12.514Z,-6.69
2018-03-03T02:33:53.064Z,-6.68
2018-03-03T02:34:33.679Z,-6.72
2018-03-03T02:35:14.170Z,-6.78
2018-03-03T02:35:54.727Z,-6.74
2018-03-03T02:36:35.275Z,-6.68
2018-03-03T02:37:15.823Z,-6.78
2018-03-03T02:37:56.373Z,-6.81
2018-03-03T02:38:36.925Z,-6.81
2018-03-03T02:39:17.484Z,-6.84
2018-03-03T02:39:58.025Z,-6.79
2018-03-03T02:40:38.584Z,-6.76
2018-03-03T02:41:19.128Z,-6.76
2018-03-03T02:41:59.698Z,-6.87
2018-03-03T02:42:40.247Z,-6.9
2018-03-03T02:43:20.799Z,-6.94
2018-03-03T02:44:01.366Z,-6.89
2018-03-03T02:44:41.889Z,-6.86
2018-03-03T02:45:22.454Z,-6.89
2018-03-03T02:46:03.014Z,-6.87
2018-03-03T02:46:43.564Z,-6.94
2018-03-03T02:47:24.186Z,-6.97
2018-03-03T02:48:04.682Z,-6.94
2018-03-03T02:48:45.243Z,-6.97
2018-03-03T02:49:25.802Z,-6.93
2018-03-03T02:50:06.354Z,-6.99
2018-03-03T02:50:46.896Z,-6.96
2018-03-03T02:51:27.446Z,-6.96
2018-03-03T02:52:08.017Z,-6.9
2018-03-03T02:52:48.574Z,-6.92
2018-03-03T02:53:29.124Z,-6.87
2018-03-03T02:54:09.676Z,-6.92
2018-03-03T02:54:50.226Z,-6.9
2018-03-03T02:55:30.776Z,-6.94
2018-03-03T02:56:11.328Z,-6.89
2018-03-03T02:56:51.872Z,-6.9
2018-03-03T02:57:32.422Z,-6.94
2018-03-03T02:58:12.961Z,-6.86
2018-03-03T02:58:53.524Z,-6.96
2018-03-03T02:59:34.072Z,-6.97
2018-03-03T03:00:14.637Z,-6.87
2018-03-03T03:00:55.182Z,-6.83
2018-03-03T03:01:35.740Z,-6.94
2018-03-03T03:02:16.313Z,-6.99
2018-03-03T03:02:56.858Z,-6.93
2018-03-03T03:03:37.438Z,-6.94
2018-03-03T03:04:17.997Z,-6.94
2018-03-03T03:04:58.550Z,-6.89
2018-03-03T03:05:39.096Z,-6.99
2018-03-03T03:06:19.658Z,-7
2018-03-03T03:07:00.228Z,-7
2018-03-03T03:07:40.781Z,-6.93
2018-03-03T03:08:21.337Z,-6.99
2018-03-03T03:09:01.889Z,-6.92
2018-03-03T03:09:42.441Z,-6.94
2018-03-03T03:10:22.990Z,-7
2018-03-03T03:11:03.567Z,-6.92
2018-03-03T03:11:44.103Z,-7.03
2018-03-03T03:12:24.673Z,-6.97
2018-03-03T03:13:05.216Z,-6.94
2018-03-03T03:13:45.794Z,-7.07
2018-03-03T03:14:26.334Z,-7.14
2018-03-03T03:15:06.891Z,-7.14
2018-03-03T03:15:47.443Z,-7.1
2018-03-03T03:16:28.007Z,-7.13
2018-03-03T03:17:08.561Z,-7.11
2018-03-03T03:17:49.119Z,-7.13
2018-03-03T03:18:29.668Z,-7.03
2018-03-03T03:19:10.223Z,-7.1
2018-03-03T03:19:50.771Z,-7.03
2018-03-03T03:20:31.338Z,-6.97
2018-03-03T03:21:11.887Z,-7.04
2018-03-03T03:21:52.436Z,-6.99
2018-03-03T03:22:33.033Z,-7
2018-03-03T03:23:13.584Z,-7
2018-03-03T03:23:54.142Z,-6.93
2018-03-03T03:24:34.691Z,-6.96
2018-03-03T03:25:15.245Z,-7.03
2018-03-03T03:25:55.828Z,-6.97
2018-03-03T03:26:36.389Z,-6.92
2018-03-03T03:27:16.939Z,-6.97
2018-03-03T03:27:57.499Z,-7.13
2018-03-03T03:28:38.047Z,-7.11
2018-03-03T03:29:18.598Z,-7.11
2018-03-03T03:29:59.146Z,-7.17
2018-03-03T03:30:39.738Z,-7.13
2018-03-03T03:31:20.286Z,-7.13
2018-03-03T03:32:00.878Z,-7.15
2018-03-03T03:32:41.406Z,-7.15
2018-03-03T03:33:21.968Z,-7.08
2018-03-03T03:34:02.507Z,-7.13
2018-03-03T03:34:43.070Z,-7.13
2018-03-03T03:35:23.621Z,-7.14
2018-03-03T03:36:04.185Z,-7.1
2018-03-03T03:36:44.756Z,-7.14
2018-03-03T03:37:25.341Z,-7.08
2018-03-03T03:38:05.902Z,-7.13
2018-03-03T03:38:46.452Z,-7.07
2018-03-03T03:39:26.996Z,-7.07
2018-03-03T03:40:07.543Z,-7.08
2018-03-03T03:40:48.106Z,-7.17
2018-03-03T03:41:28.663Z,-7.22
2018-03-03T03:42:09.218Z,-7.18
2018-03-03T03:42:49.774Z,-7.18
2018-03-03T03:43:30.325Z,-7.21
2018-03-03T03:44:10.907Z,-7.36
2018-03-03T03:44:51.470Z,-7.33
2018-03-03T03:45:32.026Z,-7.35
2018-03-03T03:46:12.580Z,-7.18
2018-03-03T03:46:53.130Z,-7.32
2018-03-03T03:47:33.696Z,-7.32
2018-03-03T03:48:14.259Z,-7.29
2018-03-03T03:48:54.832Z,-7.35
2018-03-03T03:49:35.386Z,-7.32
2018-03-03T03:50:15.950Z,-7.35
2018-03-03T03:50:56.496Z,-7.32
2018-03-03T03:51:37.286Z,-7.35
2018-03-03T03:52:17.845Z,-7.28
2018-03-03T03:52:58.393Z,-7.44
2018-03-03T03:53:38.953Z,-7.36
2018-03-03T03:54:19.502Z,-7.29
2018-03-03T03:55:00.066Z,-7.43
2018-03-03T03:55:40.613Z,-7.35
2018-03-03T03:56:21.157Z,-7.35
2018-03-03T03:57:01.715Z,-7.42
2018-03-03T03:57:42.295Z,-7.36
2018-03-03T03:58:22.833Z,-7.32
2018-03-03T03:59:03.417Z,-7.35
2018-03-03T03:59:43.958Z,-7.38
2018-03-03T04:00:24.515Z,-7.28
2018-03-03T04:01:05.088Z,-7.33
2018-03-03T04:01:45.640Z,-7.44
2018-03-03T04:02:26.209Z,-7.44
2018-03-03T04:03:06.767Z,-7.35
2018-03-03T04:03:47.327Z,-7.33
2018-03-03T04:04:27.876Z,-7.42
2018-03-03T04:05:08.419Z,-7.38
2018-03-03T04:05:48.979Z,-7.5
2018-03-03T04:06:29.565Z,-7.32
2018-03-03T04:07:10.111Z,-7.38
2018-03-03T04:07:50.702Z,-7.36
2018-03-03T04:08:31.254Z,-7.38
2018-03-03T04:09:11.804Z,-7.36
2018-03-03T04:09:52.419Z,-7.4
2018-03-03T04:10:32.956Z,-7.43
2018-03-03T04:11:13.500Z,-7.36
2018-03-03T04:11:54.065Z,-7.32
2018-03-03T04:12:34.624Z,-7.5
2018-03-03T04:13:15.176Z,-7.35
2018-03-03T04:13:55.731Z,-7.43
2018-03-03T04:14:36.280Z,-7.38
2018-03-03T04:15:16.820Z,-7.38
2018-03-03T04:15:57.392Z,-7.47
2018-03-03T04:16:37.967Z,-7.42
2018-03-03T04:17:18.521Z,-7.38
2018-03-03T04:17:59.079Z,-7.31
2018-03-03T04:18:39.682Z,-7.4
2018-03-03T04:19:20.235Z,-7.42
2018-03-03T04:20:00.776Z,-7.4
2018-03-03T04:20:41.336Z,-7.33
2018-03-03T04:21:21.877Z,-7.32
2018-03-03T04:22:02.439Z,-7.38
2018-03-03T04:22:43.000Z,-7.29
2018-03-03T04:23:23.565Z,-7.4
2018-03-03T04:24:04.106Z,-7.43
2018-03-03T04:24:44.715Z,-7.43
2018-03-03T04:25:25.275Z,-7.29
2018-03-03T04:26:05.838Z,-7.35
2018-03-03T04:26:46.399Z,-7.35
2018-03-03T04:27:26.938Z,-7.36
2018-03-03T04:28:07.492Z,-7.42
2018-03-03T04:28:48.044Z,-7.4
2018-03-03T04:29:28.592Z,-7.44
2018-03-03T04:30:09.152Z,-7.33
2018-03-03T04:30:49.701Z,-7.4
2018-03-03T04:31:30.261Z,-7.46
2018-03-03T04:32:10.831Z,-7.35
2018-03-03T04:32:51.422Z,-7.35
2018-03-03T04:33:31.996Z,-7.49
2018-03-03T04:34:12.547Z,-7.32
2018-03-03T04:34:53.100Z,-7.43
2018-03-03T04:35:33.655Z,-7.33
2018-03-03T04:36:14.223Z,-7.38
2018-03-03T04:36:54.786Z,-7.33
2018-03-03T04:37:35.341Z,-7.28
2018-03-03T04:38:15.898Z,-7.33
2018-03-03T04:38:56.451Z,-7.31
2018-03-03T04:39:37.008Z,-7.28
2018-03-03T04:40:17.560Z,-7.35
2018-03-03T04:40:58.104Z,-7.26
2018-03-03T04:41:38.668Z,-7.31
2018-03-03T04:42:19.232Z,-7.35
2018-03-03T04:42:59.773Z,-7.32
2018-03-03T04:43:40.315Z,-7.35
2018-03-03T04:44:20.870Z,-7.33
2018-03-03T04:45:01.422Z,-7.29
2018-03-03T04:45:41.970Z,-7.32
2018-03-03T04:46:22.530Z,-7.44
2018-03-03T04:47:03.067Z,-7.36
2018-03-03T04:47:43.637Z,-7.46
2018-03-03T04:48:24.174Z,-7.32
2018-03-03T04:49:04.742Z,-7.38
2018-03-03T04:49:45.296Z,-7.35
2018-03-03T04:50:25.845Z,-7.35
2018-03-03T04:51:06.398Z,-7.35
2018-03-03T04:51:46.947Z,-7.43
2018-03-03T04:52:27.490Z,-7.36
2018-03-03T04:53:08.042Z,-7.32
2018-03-03T04:53:48.590Z,-7.35
2018-03-03T04:54:29.154Z,-7.36
2018-03-03T04:55:09.706Z,-7.43
2018-03-03T04:55:50.260Z,-7.33
2018-03-03T04:56:30.834Z,-7.38
2018-03-03T04:57:11.382Z,-7.42
2018-03-03T04:57:51.931Z,-7.43
2018-03-03T04:58:32.500Z,-7.33
2018-03-03T04:59:13.055Z,-7.4
2018-03-03T04:59:53.617Z,-7.38
2018-03-03T05:00:34.178Z,-7.47
2018-03-03T05:01:14.725Z,-7.43
2018-03-03T05:01:55.278Z,-7.36
2018-03-03T05:02:35.852Z,-7.43
2018-03-03T05:03:16.400Z,-7.31
2018-03-03T05:03:56.945Z,-7.46
2018-03-03T05:04:37.505Z,-7.42
2018-03-03T05:05:18.049Z,-7.44
2018-03-03T05:05:58.591Z,-7.49
2018-03-03T05:06:39.142Z,-7.47
2018-03-03T05:07:19.690Z,-7.47
2018-03-03T05:08:00.249Z,-7.46
2018-03-03T05:08:40.802Z,-7.44
2018-03-03T05:09:21.346Z,-7.44
2018-03-03T05:10:01.911Z,-7.49
2018-03-03T05:10:42.464Z,-7.52
2018-03-03T05:11:23.010Z,-7.46
2018-03-03T05:12:03.567Z,-7.64
2018-03-03T05:12:44.123Z,-7.54
2018-03-03T05:13:24.675Z,-7.56
2018-03-03T05:14:05.226Z,-7.63
2018-03-03T05:14:45.796Z,-7.58
2018-03-03T05:15:26.400Z,-7.61
2018-03-03T05:16:06.964Z,-7.67
2018-03-03T05:16:47.524Z,-7.68
2018-03-03T05:17:28.080Z,-7.68
2018-03-03T05:18:08.623Z,-7.67
2018-03-03T05:18:49.180Z,-7.7
2018-03-03T05:19:29.760Z,-7.81
2018-03-03T05:20:10.328Z,-7.74
2018-03-03T05:20:50.933Z,-7.74
2018-03-03T05:21:31.516Z,-7.74
2018-03-03T05:22:12.075Z,-7.81
2018-03-03T05:22:52.668Z,-7.83
2018-03-03T05:23:33.260Z,-7.79
2018-03-03T05:24:13.778Z,-7.85
2018-03-03T05:24:54.338Z,-7.86
2018-03-03T05:25:34.890Z,-7.99
2018-03-03T05:26:15.456Z,-7.89
2018-03-03T05:26:56.008Z,-7.93
2018-03-03T05:27:36.558Z,-7.91
2018-03-03T05:28:17.145Z,-7.92
2018-03-03T05:28:57.672Z,-8.05
2018-03-03T05:29:38.240Z,-8.01
2018-03-03T05:30:18.788Z,-8.04
2018-03-03T05:30:59.357Z,-8.1
2018-03-03T05:31:39.921Z,-8.05
2018-03-03T05:32:20.479Z,-8.05
2018-03-03T05:33:01.038Z,-8.08
2018-03-03T05:33:41.596Z,-8.07
2018-03-03T05:34:22.142Z,-7.97
2018-03-03T05:35:02.755Z,-7.96
2018-03-03T05:35:43.344Z,-7.88
2018-03-03T05:36:23.927Z,-7.91
2018-03-03T05:37:04.459Z,-7.93
2018-03-03T05:37:45.029Z,-7.92
2018-03-03T05:38:25.603Z,-7.92
2018-03-03T05:39:06.184Z,-7.89
2018-03-03T05:39:46.717Z,-7.92
2018-03-03T05:40:27.293Z,-7.86
2018-03-03T05:41:07.858Z,-7.82
2018-03-03T05:41:48.416Z,-7.79
2018-03-03T05:42:28.965Z,-7.82
2018-03-03T05:43:09.516Z,-7.78
2018-03-03T05:43:50.079Z,-7.68
2018-03-03T05:44:30.633Z,-7.72
2018-03-03T05:45:11.228Z,-7.71
2018-03-03T05:45:51.789Z,-7.72
2018-03-03T05:46:32.360Z,-7.7
2018-03-03T05:47:12.902Z,-7.74
2018-03-03T05:47:53.491Z,-7.82
2018-03-03T05:48:34.007Z,-7.81
2018-03-03T05:49:14.567Z,-7.82
2018-03-03T05:49:55.124Z,-7.93
2018-03-03T05:50:35.710Z,-7.97
2018-03-03T05:51:16.312Z,-7.93
2018-03-03T05:51:56.867Z,-7.88
2018-03-03T05:52:37.409Z,-7.93
2018-03-03T05:53:17.960Z,-8.03
2018-03-03T05:56:27.417Z,-7.96
2018-03-03T05:57:08.000Z,-8.07
2018-03-03T05:57:48.582Z,-7.96
2018-03-03T05:58:29.133Z,-7.96
2018-03-03T05:59:09.707Z,-7.92
2018-03-03T05:59:50.264Z,-7.97
2018-03-03T06:00:30.839Z,-7.92
2018-03-03T06:01:11.403Z,-7.96
2018-03-03T06:01:51.998Z,-7.96
2018-03-03T06:02:32.534Z,-7.97
2018-03-03T06:03:13.099Z,-7.96
2018-03-03T06:03:53.683Z,-8.03
2018-03-03T06:04:34.235Z,-8.1
2018-03-03T06:05:14.789Z,-8.05
2018-03-03T06:05:55.341Z,-8.08
2018-03-03T06:06:35.923Z,-8.11
2018-03-03T06:07:16.488Z,-8.11
2018-03-03T06:07:57.050Z,-8.15
2018-03-03T06:08:37.604Z,-8.05
2018-03-03T06:09:18.172Z,-8.03
2018-03-03T06:09:58.724Z,-8.08
2018-03-03T06:10:39.269Z,-8.1
2018-03-03T06:11:19.818Z,-8.04
2018-03-03T06:12:00.383Z,-8.07
2018-03-03T06:12:40.942Z,-8.04
2018-03-03T06:13:21.499Z,-7.99
2018-03-03T06:14:02.055Z,-8.03
2018-03-03T06:14:42.638Z,-7.93
2018-03-03T06:15:23.202Z,-7.99
2018-03-03T06:16:03.763Z,-8.08
2018-03-03T06:16:44.326Z,-8.1
2018-03-03T06:17:24.891Z,-8.1
2018-03-03T06:18:05.434Z,-8.07
2018-03-03T06:18:45.985Z,-8.04
2018-03-03T06:19:26.535Z,-8.03
2018-03-03T06:20:07.241Z,-8.07
2018-03-03T06:20:47.844Z,-7.97
2018-03-03T06:21:28.446Z,-7.99
2018-03-03T06:22:09.108Z,-7.96
2018-03-03T06:22:49.667Z,-7.96
2018-03-03T06:23:30.234Z,-7.97
2018-03-03T06:24:10.783Z,-7.93
2018-03-03T06:24:51.365Z,-7.96
2018-03-03T06:25:31.910Z,-7.93
2018-03-03T06:26:12.458Z,-7.97
2018-03-03T06:26:53.025Z,-7.91
2018-03-03T06:27:33.588Z,-7.91
2018-03-03T06:28:14.146Z,-7.96
2018-03-03T06:28:54.692Z,-7.86
2018-03-03T06:29:35.243Z,-7.96
2018-03-03T06:30:15.791Z,-7.83
2018-03-03T06:30:56.337Z,-7.82
2018-03-03T06:31:36.929Z,-7.81
2018-03-03T06:32:17.523Z,-7.72
2018-03-03T06:32:58.076Z,-7.68
2018-03-03T06:33:38.614Z,-7.67
2018-03-03T06:34:19.168Z,-7.58
2018-03-03T06:34:59.736Z,-7.44
2018-03-03T06:35:40.275Z,-7.31
2018-03-03T06:36:20.824Z,-7.25
2018-03-03T06:37:01.383Z,-7.33
2018-03-03T06:37:41.938Z,-7.29
2018-03-03T06:38:22.509Z,-7.33
2018-03-03T06:39:03.062Z,-7.25
2018-03-03T06:39:43.613Z,-7.31
2018-03-03T06:40:24.177Z,-7.29
2018-03-03T06:41:04.733Z,-7.38
2018-03-03T06:41:45.287Z,-7.42
2018-03-03T06:42:25.837Z,-7.43
2018-03-03T06:43:06.432Z,-7.49
2018-03-03T06:43:47.024Z,-7.56
2018-03-03T06:44:27.631Z,-7.52
2018-03-03T06:45:08.200Z,-7.65
2018-03-03T06:45:48.749Z,-7.63
2018-03-03T06:46:29.313Z,-7.64
2018-03-03T06:47:09.858Z,-7.67
2018-03-03T06:47:50.408Z,-7.65
2018-03-03T06:48:30.941Z,-7.72
2018-03-03T06:49:11.526Z,-7.72
2018-03-03T06:49:52.093Z,-7.71
2018-03-03T06:50:32.657Z,-7.75
2018-03-03T06:51:13.199Z,-7.75
2018-03-03T06:51:53.790Z,-7.74
2018-03-03T06:52:34.345Z,-7.78
2018-03-03T06:53:14.892Z,-7.74
2018-03-03T06:53:55.455Z,-7.75
2018-03-03T06:54:35.998Z,-7.7
2018-03-03T06:55:16.581Z,-7.79
2018-03-03T06:55:57.140Z,-7.71
2018-03-03T06:56:37.700Z,-7.74
2018-03-03T06:57:18.294Z,-7.71
2018-03-03T06:57:58.845Z,-7.74
2018-03-03T06:58:39.507Z,-7.71
2018-03-03T06:59:20.043Z,-7.68
2018-03-03T07:00:00.598Z,-7.74
2018-03-03T07:00:41.175Z,-7.71
2018-03-03T07:01:21.696Z,-7.72
2018-03-03T07:02:02.338Z,-7.7
2018-03-03T07:02:42.862Z,-7.78
2018-03-03T07:03:23.468Z,-7.83
2018-03-03T07:04:04.001Z,-7.78
2018-03-03T07:04:44.553Z,-7.74
2018-03-03T07:05:25.154Z,-7.75
2018-03-03T07:06:05.867Z,-7.72
2018-03-03T07:06:46.420Z,-7.75
2018-03-03T07:07:26.980Z,-7.78
2018-03-03T07:08:07.507Z,-7.72
2018-03-03T07:08:48.093Z,-7.71
2018-03-03T07:09:28.672Z,-7.71
2018-03-03T07:10:09.254Z,-7.65
2018-03-03T07:10:49.804Z,-7.65
2018-03-03T07:11:30.431Z,-7.7
2018-03-03T07:12:11.111Z,-7.67
2018-03-03T07:12:51.651Z,-7.72
2018-03-03T07:13:32.205Z,-7.71
2018-03-03T07:14:12.796Z,-7.67
2018-03-03T07:14:53.337Z,-7.72
2018-03-03T07:15:33.904Z,-7.64
2018-03-03T07:16:14.461Z,-7.72
2018-03-03T07:16:55.032Z,-7.72
2018-03-03T07:17:35.579Z,-7.65
2018-03-03T07:18:16.148Z,-7.74
2018-03-03T07:18:56.741Z,-7.61
2018-03-03T07:19:37.371Z,-7.64
2018-03-03T07:20:17.840Z,-7.68
2018-03-03T07:20:58.454Z,-7.61
2018-03-03T07:21:39.023Z,-7.6
2018-03-03T07:22:19.571Z,-7.64
2018-03-03T07:23:00.129Z,-7.64
2018-03-03T07:23:40.936Z,-7.58
2018-03-03T07:24:21.376Z,-7.6
2018-03-03T07:25:01.910Z,-7.6
2018-03-03T07:25:42.536Z,-7.63
2018-03-03T07:26:23.095Z,-7.6
2018-03-03T07:27:03.654Z,-7.52
2018-03-03T07:27:44.200Z,-7.61
2018-03-03T07:28:24.859Z,-7.47
2018-03-03T07:29:05.365Z,-7.49
2018-03-03T07:29:45.942Z,-7.47
2018-03-03T07:30:26.583Z,-7.42
2018-03-03T07:31:07.143Z,-7.4
2018-03-03T07:31:47.687Z,-7.49
2018-03-03T07:32:28.328Z,-7.35
2018-03-03T07:33:08.882Z,-7.47
2018-03-03T07:33:49.436Z,-7.44
2018-03-03T07:34:30.042Z,-7.42
2018-03-03T07:35:10.593Z,-7.47
2018-03-03T07:35:51.175Z,-7.32
2018-03-03T07:36:31.797Z,-7.35
2018-03-03T07:37:12.336Z,-7.43
2018-03-03T07:37:52.893Z,-7.31
2018-03-03T07:38:33.424Z,-7.35
2018-03-03T07:39:14.007Z,-7.26
2018-03-03T07:39:54.562Z,-7.13
2018-03-03T07:40:35.117Z,-7.05
2018-03-03T07:41:15.681Z,-7
2018-03-03T07:41:56.334Z,-6.93
2018-03-03T07:42:36.979Z,-6.83
2018-03-03T07:43:17.569Z,-6.83
2018-03-03T07:43:58.335Z,-6.84
2018-03-03T07:44:38.895Z,-6.79
2018-03-03T07:45:19.450Z,-6.83
2018-03-03T07:45:59.993Z,-6.81
2018-03-03T07:46:40.551Z,-6.83
2018-03-03T07:47:21.106Z,-6.75
2018-03-03T07:48:01.655Z,-6.68
2018-03-03T07:48:42.207Z,-6.53
2018-03-03T07:49:22.757Z,-6.5
2018-03-03T07:50:03.298Z,-6.41
2018-03-03T07:50:43.863Z,-6.26
2018-03-03T07:51:24.420Z,-6.17
2018-03-03T07:52:04.980Z,-5.97
2018-03-03T07:52:45.606Z,-5.74
2018-03-03T07:53:26.193Z,-5.54
2018-03-03T07:54:06.770Z,-5.31
2018-03-03T07:54:47.310Z,-5.19
2018-03-03T07:55:27.867Z,-4.84
2018-03-03T07:56:08.469Z,-4.6
2018-03-03T07:56:49.023Z,-4.45
2018-03-03T07:57:29.663Z,-4.2
2018-03-03T07:58:10.260Z,-3.95
2018-03-03T07:58:50.808Z,-3.78
2018-03-03T07:59:31.361Z,-3.55
2018-03-03T08:00:12.066Z,-3.41
2018-03-03T08:00:52.657Z,-3.28
2018-03-03T08:01:33.196Z,-3.2
2018-03-03T08:02:13.759Z,-3.12
2018-03-03T08:02:54.307Z,-2.99
2018-03-03T08:03:34.934Z,-2.71
2018-03-03T08:04:15.535Z,-2.62
2018-03-03T08:04:56.060Z,-2.44
2018-03-03T08:05:36.628Z,-2.22
2018-03-03T08:06:17.184Z,-2.21
2018-03-03T08:06:57.736Z,-2.12
2018-03-03T08:07:38.311Z,-2.04
2018-03-03T08:08:18.964Z,-2.01
2018-03-03T08:08:59.852Z,-1.95
2018-03-03T08:09:40.415Z,-1.8
2018-03-03T08:10:20.966Z,-1.8
2018-03-03T08:11:01.528Z,-1.66
2018-03-03T08:11:42.140Z,-1.47
2018-03-03T08:12:22.690Z,-1.27
2018-03-03T08:13:03.423Z,-1.2
2018-03-03T08:13:44.052Z,-1.11
2018-03-03T08:14:24.646Z,-1.01
2018-03-03T08:15:05.254Z,-0.86
2018-03-03T08:15:45.870Z,-0.71
2018-03-03T08:16:26.433Z,-0.7
2018-03-03T08:17:07.010Z,-0.5
2018-03-03T08:17:47.775Z,-0.44
2018-03-03T08:18:28.335Z,-0.41
2018-03-03T08:19:08.905Z,-0.44
2018-03-03T08:19:49.496Z,-0.47
2018-03-03T08:20:30.207Z,-0.43
2018-03-03T08:21:10.772Z,-0.47
2018-03-03T08:21:51.399Z,-0.44
2018-03-03T08:22:31.954Z,-0.28
2018-03-03T08:23:12.714Z,-0.17
2018-03-03T08:23:53.335Z,-0.13
2018-03-03T08:24:33.935Z,-0.02
2018-03-03T08:25:14.492Z,-0.06
2018-03-03T08:25:55.059Z,-0.02
2018-03-03T08:26:35.670Z,-0.07
2018-03-03T08:27:16.306Z,-0.03
2018-03-03T08:27:56.959Z,0.04
2018-03-03T08:28:37.578Z,0.21
2018-03-03T08:29:18.140Z,0.25
2018-03-03T08:29:58.741Z,0.34
2018-03-03T08:30:39.284Z,0.41
2018-03-03T08:31:19.892Z,0.52
2018-03-03T08:32:00.461Z,0.62
2018-03-03T08:32:41.027Z,0.74
2018-03-03T08:33:21.594Z,0.7
2018-03-03T08:34:02.159Z,0.7
2018-03-03T08:34:42.764Z,0.77
2018-03-03T08:35:23.361Z,0.84
2018-03-03T08:36:55.252Z,0.86
2018-03-03T08:37:37.061Z,0.99
2018-03-03T08:38:20.259Z,1.02
2018-03-03T08:39:01.402Z,1.12
2018-03-03T08:39:41.994Z,1.06
2018-03-03T08:40:22.563Z,0.98
2018-03-03T08:41:03.202Z,1.01
2018-03-03T08:41:44.550Z,0.98
2018-03-03T08:42:27.140Z,0.91
2018-03-03T08:43:08.418Z,0.87
2018-03-03T08:43:49.826Z,0.92
2018-03-03T08:44:30.937Z,0.88
2018-03-03T08:45:12.659Z,0.8
2018-03-03T08:45:53.912Z,0.84
2018-03-03T08:46:35.046Z,0.83
2018-03-03T08:47:16.432Z,0.87
2018-03-03T08:47:57.378Z,0.84
2018-03-03T08:48:38.939Z,0.69